sensor_id;sensor_type;location;lat;lon;timestamp;P1;durP1;ratioP1;P2;durP2;ratioP2
3967;SDS011;9221;42.646;23.380;2022-07-11T00:00:04;1.47;;;0.90;;
3967;SDS011;9221;42.646;23.380;2022-07-11T00:02:34;1.70;;;1.00;;
3967;SDS011;9221;42.646;23.380;2022-07-11T00:05:00;2.10;;;1.27;;
3967;SDS011;9221;42.646;23.380;2022-07-11T00:07:27;2.20;;;1.30;;
3967;SDS011;9221;42.646;23.380;2022-07-11T00:09:53;1.40;;;0.87;;
3967;SDS011;9221;42.646;23.380;2022-07-11T00:12:18;1.17;;;0.90;;
3967;SDS011;9221;42.646;23.380;2022-07-11T00:14:46;2.53;;;1.10;;
3967;SDS011;9221;42.646;23.380;2022-07-11T00:17:12;3.50;;;1.27;;
3967;SDS011;9221;42.646;23.380;2022-07-11T00:19:37;1.73;;;0.93;;
3967;SDS011;9221;42.646;23.380;2022-07-11T00:22:03;2.23;;;1.00;;
3967;SDS011;9221;42.646;23.380;2022-07-11T00:24:29;1.90;;;1.10;;
3967;SDS011;9221;42.646;23.380;2022-07-11T00:26:54;2.73;;;1.20;;
3967;SDS011;9221;42.646;23.380;2022-07-11T00:29:20;3.63;;;1.17;;
3967;SDS011;9221;42.646;23.380;2022-07-11T00:31:45;3.30;;;1.20;;
3967;SDS011;9221;42.646;23.380;2022-07-11T00:34:11;1.30;;;0.80;;
3967;SDS011;9221;42.646;23.380;2022-07-11T00:36:36;3.53;;;1.00;;
3967;SDS011;9221;42.646;23.380;2022-07-11T00:39:02;1.73;;;1.13;;
3967;SDS011;9221;42.646;23.380;2022-07-11T00:41:28;12.67;;;1.23;;
3967;SDS011;9221;42.646;23.380;2022-07-11T00:43:58;3.13;;;1.50;;
3967;SDS011;9221;42.646;23.380;2022-07-11T00:46:25;1.83;;;0.97;;
3967;SDS011;9221;42.646;23.380;2022-07-11T00:48:52;4.03;;;1.07;;
3967;SDS011;9221;42.646;23.380;2022-07-11T00:51:19;3.63;;;1.40;;
3967;SDS011;9221;42.646;23.380;2022-07-11T00:53:46;4.00;;;0.90;;
3967;SDS011;9221;42.646;23.380;2022-07-11T00:56:14;1.57;;;0.77;;
3967;SDS011;9221;42.646;23.380;2022-07-11T00:58:41;1.87;;;0.97;;
3967;SDS011;9221;42.646;23.380;2022-07-11T01:01:06;2.80;;;0.80;;
3967;SDS011;9221;42.646;23.380;2022-07-11T01:03:36;2.20;;;1.10;;
3967;SDS011;9221;42.646;23.380;2022-07-11T01:06:05;3.40;;;1.17;;
3967;SDS011;9221;42.646;23.380;2022-07-11T01:08:31;3.33;;;0.97;;
3967;SDS011;9221;42.646;23.380;2022-07-11T01:11:05;1.43;;;0.87;;
3967;SDS011;9221;42.646;23.380;2022-07-11T01:13:35;2.43;;;1.10;;
3967;SDS011;9221;42.646;23.380;2022-07-11T01:18:35;2.60;;;0.90;;
3967;SDS011;9221;42.646;23.380;2022-07-11T01:21:01;1.60;;;1.00;;
3967;SDS011;9221;42.646;23.380;2022-07-11T01:23:31;3.00;;;1.00;;
3967;SDS011;9221;42.646;23.380;2022-07-11T01:25:57;4.33;;;1.17;;
3967;SDS011;9221;42.646;23.380;2022-07-11T01:28:22;6.57;;;1.20;;
3967;SDS011;9221;42.646;23.380;2022-07-11T01:30:47;2.17;;;1.00;;
3967;SDS011;9221;42.646;23.380;2022-07-11T01:33:13;2.50;;;0.93;;
3967;SDS011;9221;42.646;23.380;2022-07-11T01:35:38;2.03;;;1.00;;
3967;SDS011;9221;42.646;23.380;2022-07-11T01:38:04;2.30;;;1.30;;
3967;SDS011;9221;42.646;23.380;2022-07-11T01:40:29;8.03;;;1.27;;
3967;SDS011;9221;42.646;23.380;2022-07-11T01:42:55;2.03;;;1.00;;
3967;SDS011;9221;42.646;23.380;2022-07-11T01:45:20;3.03;;;1.43;;
3967;SDS011;9221;42.646;23.380;2022-07-11T01:47:46;1.73;;;0.90;;
3967;SDS011;9221;42.646;23.380;2022-07-11T01:50:11;0.93;;;0.77;;
3967;SDS011;9221;42.646;23.380;2022-07-11T01:52:37;4.70;;;1.13;;
3967;SDS011;9221;42.646;23.380;2022-07-11T01:55:02;2.43;;;1.17;;
3967;SDS011;9221;42.646;23.380;2022-07-11T01:57:28;2.63;;;0.90;;
3967;SDS011;9221;42.646;23.380;2022-07-11T01:59:53;2.50;;;1.00;;
3967;SDS011;9221;42.646;23.380;2022-07-11T02:02:19;1.33;;;1.00;;
3967;SDS011;9221;42.646;23.380;2022-07-11T02:04:44;4.23;;;1.10;;
3967;SDS011;9221;42.646;23.380;2022-07-11T02:07:09;2.10;;;1.00;;
3967;SDS011;9221;42.646;23.380;2022-07-11T02:09:36;2.33;;;0.83;;
3967;SDS011;9221;42.646;23.380;2022-07-11T02:12:03;4.53;;;1.00;;
3967;SDS011;9221;42.646;23.380;2022-07-11T02:14:29;2.23;;;0.67;;
3967;SDS011;9221;42.646;23.380;2022-07-11T02:16:54;2.03;;;1.20;;
3967;SDS011;9221;42.646;23.380;2022-07-11T02:19:20;1.97;;;1.00;;
3967;SDS011;9221;42.646;23.380;2022-07-11T02:21:45;3.33;;;1.00;;
3967;SDS011;9221;42.646;23.380;2022-07-11T02:24:11;3.70;;;1.07;;
3967;SDS011;9221;42.646;23.380;2022-07-11T02:26:36;1.33;;;0.97;;
3967;SDS011;9221;42.646;23.380;2022-07-11T02:29:02;1.20;;;0.80;;
3967;SDS011;9221;42.646;23.380;2022-07-11T02:31:27;1.67;;;0.77;;
3967;SDS011;9221;42.646;23.380;2022-07-11T02:33:52;3.73;;;1.10;;
3967;SDS011;9221;42.646;23.380;2022-07-11T02:36:18;3.63;;;1.30;;
3967;SDS011;9221;42.646;23.380;2022-07-11T02:38:44;1.13;;;0.67;;
3967;SDS011;9221;42.646;23.380;2022-07-11T02:41:09;1.53;;;1.00;;
3967;SDS011;9221;42.646;23.380;2022-07-11T02:43:34;2.73;;;1.03;;
3967;SDS011;9221;42.646;23.380;2022-07-11T02:46:00;1.53;;;0.93;;
3967;SDS011;9221;42.646;23.380;2022-07-11T02:48:26;2.30;;;0.90;;
3967;SDS011;9221;42.646;23.380;2022-07-11T02:50:51;3.43;;;1.23;;
3967;SDS011;9221;42.646;23.380;2022-07-11T02:53:17;2.67;;;0.93;;
3967;SDS011;9221;42.646;23.380;2022-07-11T02:55:42;3.10;;;1.00;;
3967;SDS011;9221;42.646;23.380;2022-07-11T02:58:08;4.87;;;1.03;;
3967;SDS011;9221;42.646;23.380;2022-07-11T03:00:33;1.57;;;0.83;;
3967;SDS011;9221;42.646;23.380;2022-07-11T03:02:59;5.00;;;1.20;;
3967;SDS011;9221;42.646;23.380;2022-07-11T03:05:24;2.10;;;1.00;;
3967;SDS011;9221;42.646;23.380;2022-07-11T03:07:50;2.07;;;0.90;;
3967;SDS011;9221;42.646;23.380;2022-07-11T03:10:15;1.60;;;0.80;;
3967;SDS011;9221;42.646;23.380;2022-07-11T03:12:41;2.53;;;0.93;;
3967;SDS011;9221;42.646;23.380;2022-07-11T03:15:07;7.37;;;1.70;;
3967;SDS011;9221;42.646;23.380;2022-07-11T03:17:33;3.63;;;0.93;;
3967;SDS011;9221;42.646;23.380;2022-07-11T03:19:59;2.00;;;1.00;;
3967;SDS011;9221;42.646;23.380;2022-07-11T03:22:25;1.13;;;0.90;;
3967;SDS011;9221;42.646;23.380;2022-07-11T03:24:51;2.37;;;0.80;;
3967;SDS011;9221;42.646;23.380;2022-07-11T03:27:16;4.23;;;1.10;;
3967;SDS011;9221;42.646;23.380;2022-07-11T03:29:42;3.13;;;1.03;;
3967;SDS011;9221;42.646;23.380;2022-07-11T03:32:10;9.83;;;1.20;;
3967;SDS011;9221;42.646;23.380;2022-07-11T03:34:36;2.10;;;1.00;;
3967;SDS011;9221;42.646;23.380;2022-07-11T03:37:02;1.60;;;0.80;;
3967;SDS011;9221;42.646;23.380;2022-07-11T03:39:28;1.10;;;0.80;;
3967;SDS011;9221;42.646;23.380;2022-07-11T03:41:53;4.70;;;0.90;;
3967;SDS011;9221;42.646;23.380;2022-07-11T03:44:19;1.70;;;0.87;;
3967;SDS011;9221;42.646;23.380;2022-07-11T03:46:45;3.30;;;1.17;;
3967;SDS011;9221;42.646;23.380;2022-07-11T03:49:10;4.53;;;1.13;;
3967;SDS011;9221;42.646;23.380;2022-07-11T03:51:36;2.30;;;0.87;;
3967;SDS011;9221;42.646;23.380;2022-07-11T03:54:02;1.80;;;1.00;;
3967;SDS011;9221;42.646;23.380;2022-07-11T03:56:27;2.27;;;1.27;;
3967;SDS011;9221;42.646;23.380;2022-07-11T03:58:52;1.50;;;0.93;;
3967;SDS011;9221;42.646;23.380;2022-07-11T04:01:18;2.00;;;1.03;;
3967;SDS011;9221;42.646;23.380;2022-07-11T04:03:45;1.60;;;1.20;;
3967;SDS011;9221;42.646;23.380;2022-07-11T04:06:11;5.30;;;1.20;;
3967;SDS011;9221;42.646;23.380;2022-07-11T04:08:37;2.40;;;1.40;;
3967;SDS011;9221;42.646;23.380;2022-07-11T04:11:02;2.70;;;1.20;;
3967;SDS011;9221;42.646;23.380;2022-07-11T04:13:29;3.87;;;1.20;;
3967;SDS011;9221;42.646;23.380;2022-07-11T04:15:55;3.60;;;1.37;;
3967;SDS011;9221;42.646;23.380;2022-07-11T04:18:21;3.03;;;1.23;;
3967;SDS011;9221;42.646;23.380;2022-07-11T04:20:46;2.30;;;1.03;;
3967;SDS011;9221;42.646;23.380;2022-07-11T04:23:13;2.23;;;1.10;;
3967;SDS011;9221;42.646;23.380;2022-07-11T04:25:38;3.07;;;0.97;;
3967;SDS011;9221;42.646;23.380;2022-07-11T04:28:04;4.30;;;1.23;;
3967;SDS011;9221;42.646;23.380;2022-07-11T04:30:29;2.00;;;1.10;;
3967;SDS011;9221;42.646;23.380;2022-07-11T04:32:55;2.20;;;1.30;;
3967;SDS011;9221;42.646;23.380;2022-07-11T04:35:21;2.47;;;1.23;;
3967;SDS011;9221;42.646;23.380;2022-07-11T04:37:48;4.70;;;1.37;;
3967;SDS011;9221;42.646;23.380;2022-07-11T04:40:13;3.13;;;1.20;;
3967;SDS011;9221;42.646;23.380;2022-07-11T04:42:39;10.70;;;1.50;;
3967;SDS011;9221;42.646;23.380;2022-07-11T04:45:05;2.33;;;1.30;;
3967;SDS011;9221;42.646;23.380;2022-07-11T04:47:31;4.53;;;1.33;;
3967;SDS011;9221;42.646;23.380;2022-07-11T04:49:56;3.20;;;1.60;;
3967;SDS011;9221;42.646;23.380;2022-07-11T04:52:22;4.00;;;1.10;;
3967;SDS011;9221;42.646;23.380;2022-07-11T04:54:51;2.03;;;1.03;;
3967;SDS011;9221;42.646;23.380;2022-07-11T04:57:18;5.70;;;1.20;;
3967;SDS011;9221;42.646;23.380;2022-07-11T04:59:43;3.50;;;1.30;;
3967;SDS011;9221;42.646;23.380;2022-07-11T05:02:08;6.20;;;1.27;;
3967;SDS011;9221;42.646;23.380;2022-07-11T05:04:34;3.47;;;1.43;;
3967;SDS011;9221;42.646;23.380;2022-07-11T05:06:59;5.20;;;1.40;;
3967;SDS011;9221;42.646;23.380;2022-07-11T05:09:25;6.03;;;2.03;;
3967;SDS011;9221;42.646;23.380;2022-07-11T05:11:50;1.80;;;1.17;;
3967;SDS011;9221;42.646;23.380;2022-07-11T05:14:15;1.87;;;1.13;;
3967;SDS011;9221;42.646;23.380;2022-07-11T05:16:41;2.40;;;1.33;;
3967;SDS011;9221;42.646;23.380;2022-07-11T05:19:06;3.60;;;1.70;;
3967;SDS011;9221;42.646;23.380;2022-07-11T05:21:32;6.77;;;1.80;;
3967;SDS011;9221;42.646;23.380;2022-07-11T05:23:57;3.50;;;1.17;;
3967;SDS011;9221;42.646;23.380;2022-07-11T05:26:23;3.10;;;1.40;;
3967;SDS011;9221;42.646;23.380;2022-07-11T05:28:48;2.17;;;1.47;;
3967;SDS011;9221;42.646;23.380;2022-07-11T05:31:14;1.70;;;1.00;;
3967;SDS011;9221;42.646;23.380;2022-07-11T05:33:39;3.07;;;1.57;;
3967;SDS011;9221;42.646;23.380;2022-07-11T05:36:04;2.83;;;1.20;;
3967;SDS011;9221;42.646;23.380;2022-07-11T05:38:30;3.10;;;1.40;;
3967;SDS011;9221;42.646;23.380;2022-07-11T05:40:55;5.03;;;1.40;;
3967;SDS011;9221;42.646;23.380;2022-07-11T05:43:23;1.90;;;1.00;;
3967;SDS011;9221;42.646;23.380;2022-07-11T05:45:48;5.53;;;1.20;;
3967;SDS011;9221;42.646;23.380;2022-07-11T05:48:14;2.87;;;1.50;;
3967;SDS011;9221;42.646;23.380;2022-07-11T05:50:39;1.70;;;1.10;;
3967;SDS011;9221;42.646;23.380;2022-07-11T05:53:05;6.83;;;1.63;;
3967;SDS011;9221;42.646;23.380;2022-07-11T05:55:30;2.73;;;1.20;;
3967;SDS011;9221;42.646;23.380;2022-07-11T05:57:56;5.23;;;1.10;;
3967;SDS011;9221;42.646;23.380;2022-07-11T06:00:21;2.50;;;1.50;;
3967;SDS011;9221;42.646;23.380;2022-07-11T06:02:48;6.73;;;1.00;;
3967;SDS011;9221;42.646;23.380;2022-07-11T06:05:13;7.70;;;1.00;;
3967;SDS011;9221;42.646;23.380;2022-07-11T06:07:39;3.60;;;1.00;;
3967;SDS011;9221;42.646;23.380;2022-07-11T06:10:23;3.70;;;0.70;;
3967;SDS011;9221;42.646;23.380;2022-07-11T06:12:48;1.20;;;0.70;;
3967;SDS011;9221;42.646;23.380;2022-07-11T06:15:14;2.40;;;0.70;;
3967;SDS011;9221;42.646;23.380;2022-07-11T06:17:39;3.67;;;0.77;;
3967;SDS011;9221;42.646;23.380;2022-07-11T06:20:05;2.13;;;0.70;;
3967;SDS011;9221;42.646;23.380;2022-07-11T06:22:31;6.77;;;1.10;;
3967;SDS011;9221;42.646;23.380;2022-07-11T06:24:56;0.70;;;0.60;;
3967;SDS011;9221;42.646;23.380;2022-07-11T06:27:22;2.10;;;0.63;;
3967;SDS011;9221;42.646;23.380;2022-07-11T06:29:48;0.83;;;0.50;;
3967;SDS011;9221;42.646;23.380;2022-07-11T06:32:14;7.67;;;1.00;;
3967;SDS011;9221;42.646;23.380;2022-07-11T06:34:39;2.20;;;0.83;;
3967;SDS011;9221;42.646;23.380;2022-07-11T06:37:04;2.70;;;0.90;;
3967;SDS011;9221;42.646;23.380;2022-07-11T06:39:30;0.90;;;0.63;;
3967;SDS011;9221;42.646;23.380;2022-07-11T06:41:55;2.83;;;0.80;;
3967;SDS011;9221;42.646;23.380;2022-07-11T06:44:21;2.73;;;0.70;;
3967;SDS011;9221;42.646;23.380;2022-07-11T06:46:46;1.27;;;0.50;;
3967;SDS011;9221;42.646;23.380;2022-07-11T06:49:13;2.97;;;0.90;;
3967;SDS011;9221;42.646;23.380;2022-07-11T06:51:39;3.80;;;0.70;;
3967;SDS011;9221;42.646;23.380;2022-07-11T06:54:05;1.93;;;0.67;;
3967;SDS011;9221;42.646;23.380;2022-07-11T06:56:30;5.83;;;0.80;;
3967;SDS011;9221;42.646;23.380;2022-07-11T06:58:56;2.13;;;0.70;;
3967;SDS011;9221;42.646;23.380;2022-07-11T07:01:21;1.00;;;0.63;;
3967;SDS011;9221;42.646;23.380;2022-07-11T07:03:47;2.20;;;0.50;;
3967;SDS011;9221;42.646;23.380;2022-07-11T07:06:12;6.40;;;0.70;;
3967;SDS011;9221;42.646;23.380;2022-07-11T07:08:37;3.27;;;1.03;;
3967;SDS011;9221;42.646;23.380;2022-07-11T07:11:03;2.80;;;0.63;;
3967;SDS011;9221;42.646;23.380;2022-07-11T07:13:28;1.57;;;0.70;;
3967;SDS011;9221;42.646;23.380;2022-07-11T07:15:54;4.30;;;0.50;;
3967;SDS011;9221;42.646;23.380;2022-07-11T07:18:21;1.33;;;0.60;;
3967;SDS011;9221;42.646;23.380;2022-07-11T07:20:48;2.23;;;0.67;;
3967;SDS011;9221;42.646;23.380;2022-07-11T07:23:14;2.67;;;0.67;;
3967;SDS011;9221;42.646;23.380;2022-07-11T07:25:39;3.40;;;0.90;;
3967;SDS011;9221;42.646;23.380;2022-07-11T07:28:04;1.43;;;0.77;;
3967;SDS011;9221;42.646;23.380;2022-07-11T07:30:30;1.60;;;0.90;;
3967;SDS011;9221;42.646;23.380;2022-07-11T07:32:57;4.30;;;0.77;;
3967;SDS011;9221;42.646;23.380;2022-07-11T07:35:22;2.27;;;0.60;;
3967;SDS011;9221;42.646;23.380;2022-07-11T07:37:47;2.47;;;0.80;;
3967;SDS011;9221;42.646;23.380;2022-07-11T07:40:13;0.93;;;0.70;;
3967;SDS011;9221;42.646;23.380;2022-07-11T07:42:38;1.53;;;0.90;;
3967;SDS011;9221;42.646;23.380;2022-07-11T07:45:04;2.10;;;0.80;;
3967;SDS011;9221;42.646;23.380;2022-07-11T07:47:29;6.27;;;0.70;;
3967;SDS011;9221;42.646;23.380;2022-07-11T07:49:55;2.90;;;0.60;;
3967;SDS011;9221;42.646;23.380;2022-07-11T07:52:21;3.97;;;0.80;;
3967;SDS011;9221;42.646;23.380;2022-07-11T07:54:46;8.23;;;0.90;;
3967;SDS011;9221;42.646;23.380;2022-07-11T07:57:12;3.00;;;0.70;;
3967;SDS011;9221;42.646;23.380;2022-07-11T07:59:37;0.90;;;0.60;;
3967;SDS011;9221;42.646;23.380;2022-07-11T08:02:02;2.40;;;0.57;;
3967;SDS011;9221;42.646;23.380;2022-07-11T08:04:28;5.23;;;0.90;;
3967;SDS011;9221;42.646;23.380;2022-07-11T08:06:54;4.43;;;1.07;;
3967;SDS011;9221;42.646;23.380;2022-07-11T08:09:21;3.90;;;2.40;;
3967;SDS011;9221;42.646;23.380;2022-07-11T08:11:47;4.23;;;1.00;;
3967;SDS011;9221;42.646;23.380;2022-07-11T08:14:12;7.20;;;0.97;;
3967;SDS011;9221;42.646;23.380;2022-07-11T08:16:38;3.23;;;0.90;;
3967;SDS011;9221;42.646;23.380;2022-07-11T08:19:04;0.97;;;0.40;;
3967;SDS011;9221;42.646;23.380;2022-07-11T08:21:30;2.70;;;0.70;;
3967;SDS011;9221;42.646;23.380;2022-07-11T08:23:56;5.07;;;0.83;;
3967;SDS011;9221;42.646;23.380;2022-07-11T08:26:22;2.83;;;0.70;;
3967;SDS011;9221;42.646;23.380;2022-07-11T08:28:48;6.43;;;0.70;;
3967;SDS011;9221;42.646;23.380;2022-07-11T08:31:13;1.50;;;0.57;;
3967;SDS011;9221;42.646;23.380;2022-07-11T08:33:39;3.40;;;0.83;;
3967;SDS011;9221;42.646;23.380;2022-07-11T08:36:04;6.00;;;0.80;;
3967;SDS011;9221;42.646;23.380;2022-07-11T08:38:31;5.80;;;0.83;;
3967;SDS011;9221;42.646;23.380;2022-07-11T08:40:56;4.10;;;1.10;;
3967;SDS011;9221;42.646;23.380;2022-07-11T08:43:22;5.27;;;1.00;;
3967;SDS011;9221;42.646;23.380;2022-07-11T08:45:52;1.60;;;0.60;;
3967;SDS011;9221;42.646;23.380;2022-07-11T08:48:19;5.47;;;0.90;;
3967;SDS011;9221;42.646;23.380;2022-07-11T08:50:46;1.00;;;0.60;;
3967;SDS011;9221;42.646;23.380;2022-07-11T08:53:12;1.90;;;0.60;;
3967;SDS011;9221;42.646;23.380;2022-07-11T08:55:39;3.43;;;0.70;;
3967;SDS011;9221;42.646;23.380;2022-07-11T08:58:05;4.23;;;0.50;;
3967;SDS011;9221;42.646;23.380;2022-07-11T09:00:32;7.13;;;0.60;;
3967;SDS011;9221;42.646;23.380;2022-07-11T09:02:57;4.67;;;0.70;;
3967;SDS011;9221;42.646;23.380;2022-07-11T09:05:25;3.27;;;0.70;;
3967;SDS011;9221;42.646;23.380;2022-07-11T09:07:52;2.00;;;0.50;;
3967;SDS011;9221;42.646;23.380;2022-07-11T09:10:17;2.40;;;0.60;;
3967;SDS011;9221;42.646;23.380;2022-07-11T09:15:31;2.37;;;0.60;;
3967;SDS011;9221;42.646;23.380;2022-07-11T09:23:49;6.27;;;0.83;;
3967;SDS011;9221;42.646;23.380;2022-07-11T09:26:39;2.10;;;0.60;;
3967;SDS011;9221;42.646;23.380;2022-07-11T09:29:10;1.47;;;0.50;;
3967;SDS011;9221;42.646;23.380;2022-07-11T09:31:40;1.33;;;0.50;;
3967;SDS011;9221;42.646;23.380;2022-07-11T09:34:13;0.93;;;0.50;;
3967;SDS011;9221;42.646;23.380;2022-07-11T09:36:50;1.07;;;0.40;;
3967;SDS011;9221;42.646;23.380;2022-07-11T09:39:20;3.87;;;0.80;;
3967;SDS011;9221;42.646;23.380;2022-07-11T09:41:47;0.90;;;0.53;;
3967;SDS011;9221;42.646;23.380;2022-07-11T09:44:15;1.23;;;0.50;;
3967;SDS011;9221;42.646;23.380;2022-07-11T09:46:49;4.33;;;0.50;;
3967;SDS011;9221;42.646;23.380;2022-07-11T09:49:16;1.30;;;0.37;;
3967;SDS011;9221;42.646;23.380;2022-07-11T09:51:53;2.33;;;0.50;;
3967;SDS011;9221;42.646;23.380;2022-07-11T09:54:18;4.83;;;0.70;;
3967;SDS011;9221;42.646;23.380;2022-07-11T09:56:44;3.03;;;0.60;;
3967;SDS011;9221;42.646;23.380;2022-07-11T09:59:12;4.23;;;0.60;;
3967;SDS011;9221;42.646;23.380;2022-07-11T10:01:40;1.60;;;0.57;;
3967;SDS011;9221;42.646;23.380;2022-07-11T10:04:07;2.63;;;0.80;;
3967;SDS011;9221;42.646;23.380;2022-07-11T10:06:35;3.50;;;1.10;;
3967;SDS011;9221;42.646;23.380;2022-07-11T10:09:02;7.13;;;0.60;;
3967;SDS011;9221;42.646;23.380;2022-07-11T10:11:30;1.40;;;0.60;;
3967;SDS011;9221;42.646;23.380;2022-07-11T10:13:56;1.43;;;0.77;;
3967;SDS011;9221;42.646;23.380;2022-07-11T10:17:13;4.10;;;0.53;;
3967;SDS011;9221;42.646;23.380;2022-07-11T10:19:25;1.33;;;0.50;;
3967;SDS011;9221;42.646;23.380;2022-07-11T10:25:19;3.03;;;0.60;;
3967;SDS011;9221;42.646;23.380;2022-07-11T10:33:09;13.67;;;0.90;;
3967;SDS011;9221;42.646;23.380;2022-07-11T10:35:34;1.10;;;0.50;;
3967;SDS011;9221;42.646;23.380;2022-07-11T10:38:00;0.80;;;0.50;;
3967;SDS011;9221;42.646;23.380;2022-07-11T10:40:40;1.67;;;0.50;;
3967;SDS011;9221;42.646;23.380;2022-07-11T10:43:11;1.60;;;0.60;;
3967;SDS011;9221;42.646;23.380;2022-07-11T10:45:57;1.47;;;0.73;;
3967;SDS011;9221;42.646;23.380;2022-07-11T10:48:23;1.20;;;0.80;;
3967;SDS011;9221;42.646;23.380;2022-07-11T10:53:38;2.90;;;0.80;;
3967;SDS011;9221;42.646;23.380;2022-07-11T10:59:14;3.13;;;0.80;;
3967;SDS011;9221;42.646;23.380;2022-07-11T11:07:28;1.00;;;0.60;;
3967;SDS011;9221;42.646;23.380;2022-07-11T11:09:59;2.50;;;0.50;;
3967;SDS011;9221;42.646;23.380;2022-07-11T11:15:46;1.00;;;0.50;;
3967;SDS011;9221;42.646;23.380;2022-07-11T11:18:41;3.40;;;0.67;;
3967;SDS011;9221;42.646;23.380;2022-07-11T11:23:38;2.67;;;0.90;;
3967;SDS011;9221;42.646;23.380;2022-07-11T11:28:36;1.37;;;0.50;;
3967;SDS011;9221;42.646;23.380;2022-07-11T11:31:04;1.20;;;0.50;;
3967;SDS011;9221;42.646;23.380;2022-07-11T11:33:32;1.90;;;0.60;;
3967;SDS011;9221;42.646;23.380;2022-07-11T11:38:29;1.20;;;0.50;;
3967;SDS011;9221;42.646;23.380;2022-07-11T11:40:57;1.10;;;0.53;;
3967;SDS011;9221;42.646;23.380;2022-07-11T11:43:24;2.10;;;0.50;;
3967;SDS011;9221;42.646;23.380;2022-07-11T11:45:49;1.70;;;0.57;;
3967;SDS011;9221;42.646;23.380;2022-07-11T11:48:37;3.83;;;0.70;;
3967;SDS011;9221;42.646;23.380;2022-07-11T11:51:03;0.80;;;0.40;;
3967;SDS011;9221;42.646;23.380;2022-07-11T11:53:36;1.97;;;0.80;;
3967;SDS011;9221;42.646;23.380;2022-07-11T11:56:21;2.80;;;0.60;;
3967;SDS011;9221;42.646;23.380;2022-07-11T11:58:49;1.60;;;0.70;;
3967;SDS011;9221;42.646;23.380;2022-07-11T12:01:24;3.50;;;0.77;;
3967;SDS011;9221;42.646;23.380;2022-07-11T12:03:55;1.53;;;0.70;;
3967;SDS011;9221;42.646;23.380;2022-07-11T12:06:28;2.10;;;0.90;;
3967;SDS011;9221;42.646;23.380;2022-07-11T12:09:02;1.50;;;0.70;;
3967;SDS011;9221;42.646;23.380;2022-07-11T12:11:29;1.23;;;0.50;;
3967;SDS011;9221;42.646;23.380;2022-07-11T12:13:56;1.50;;;0.70;;
3967;SDS011;9221;42.646;23.380;2022-07-11T12:16:23;2.43;;;0.60;;
3967;SDS011;9221;42.646;23.380;2022-07-11T12:19:05;10.43;;;0.70;;
3967;SDS011;9221;42.646;23.380;2022-07-11T12:21:33;1.57;;;0.60;;
3967;SDS011;9221;42.646;23.380;2022-07-11T12:23:59;4.57;;;0.70;;
3967;SDS011;9221;42.646;23.380;2022-07-11T12:26:28;1.83;;;0.90;;
3967;SDS011;9221;42.646;23.380;2022-07-11T12:29:02;2.23;;;0.90;;
3967;SDS011;9221;42.646;23.380;2022-07-11T12:34:08;3.83;;;0.60;;
3967;SDS011;9221;42.646;23.380;2022-07-11T12:36:34;0.80;;;0.50;;
3967;SDS011;9221;42.646;23.380;2022-07-11T12:38:59;1.50;;;0.67;;
3967;SDS011;9221;42.646;23.380;2022-07-11T12:41:25;2.37;;;0.50;;
3967;SDS011;9221;42.646;23.380;2022-07-11T12:43:51;1.73;;;0.60;;
3967;SDS011;9221;42.646;23.380;2022-07-11T12:46:36;3.00;;;0.60;;
3967;SDS011;9221;42.646;23.380;2022-07-11T12:49:03;0.90;;;0.60;;
3967;SDS011;9221;42.646;23.380;2022-07-11T12:51:34;3.23;;;0.93;;
3967;SDS011;9221;42.646;23.380;2022-07-11T12:54:05;1.13;;;0.47;;
3967;SDS011;9221;42.646;23.380;2022-07-11T12:56:32;1.17;;;0.50;;
3967;SDS011;9221;42.646;23.380;2022-07-11T12:58:58;3.30;;;0.60;;
3967;SDS011;9221;42.646;23.380;2022-07-11T13:01:24;1.07;;;0.70;;
3967;SDS011;9221;42.646;23.380;2022-07-11T13:03:49;1.90;;;0.70;;
3967;SDS011;9221;42.646;23.380;2022-07-11T13:06:16;1.60;;;0.70;;
3967;SDS011;9221;42.646;23.380;2022-07-11T13:08:41;1.30;;;0.70;;
3967;SDS011;9221;42.646;23.380;2022-07-11T13:11:07;3.63;;;0.57;;
3967;SDS011;9221;42.646;23.380;2022-07-11T13:13:50;4.80;;;0.47;;
3967;SDS011;9221;42.646;23.380;2022-07-11T13:16:17;4.10;;;0.70;;
3967;SDS011;9221;42.646;23.380;2022-07-11T13:18:44;1.17;;;0.50;;
3967;SDS011;9221;42.646;23.380;2022-07-11T13:21:10;1.40;;;0.60;;
3967;SDS011;9221;42.646;23.380;2022-07-11T13:23:36;1.20;;;0.57;;
3967;SDS011;9221;42.646;23.380;2022-07-11T13:26:02;1.97;;;0.50;;
3967;SDS011;9221;42.646;23.380;2022-07-11T13:28:29;2.07;;;0.57;;
3967;SDS011;9221;42.646;23.380;2022-07-11T13:30:55;1.53;;;0.63;;
3967;SDS011;9221;42.646;23.380;2022-07-11T13:33:20;2.53;;;0.70;;
3967;SDS011;9221;42.646;23.380;2022-07-11T13:35:47;1.57;;;0.67;;
3967;SDS011;9221;42.646;23.380;2022-07-11T13:38:14;1.30;;;0.60;;
3967;SDS011;9221;42.646;23.380;2022-07-11T13:40:40;2.40;;;0.80;;
3967;SDS011;9221;42.646;23.380;2022-07-11T13:43:06;4.07;;;0.77;;
3967;SDS011;9221;42.646;23.380;2022-07-11T13:45:32;2.30;;;0.53;;
3967;SDS011;9221;42.646;23.380;2022-07-11T13:47:58;0.90;;;0.40;;
3967;SDS011;9221;42.646;23.380;2022-07-11T13:50:23;1.10;;;0.60;;
3967;SDS011;9221;42.646;23.380;2022-07-11T13:52:50;2.70;;;0.60;;
3967;SDS011;9221;42.646;23.380;2022-07-11T13:55:16;0.90;;;0.50;;
3967;SDS011;9221;42.646;23.380;2022-07-11T13:57:42;2.60;;;1.40;;
3967;SDS011;9221;42.646;23.380;2022-07-11T14:00:08;1.70;;;0.57;;
3967;SDS011;9221;42.646;23.380;2022-07-11T14:02:34;1.80;;;0.70;;
3967;SDS011;9221;42.646;23.380;2022-07-11T14:04:59;2.60;;;0.90;;
3967;SDS011;9221;42.646;23.380;2022-07-11T14:07:25;2.10;;;0.70;;
3967;SDS011;9221;42.646;23.380;2022-07-11T14:09:50;1.03;;;0.50;;
3967;SDS011;9221;42.646;23.380;2022-07-11T14:12:16;2.07;;;0.93;;
3967;SDS011;9221;42.646;23.380;2022-07-11T14:14:41;0.80;;;0.50;;
3967;SDS011;9221;42.646;23.380;2022-07-11T14:17:07;2.50;;;0.63;;
3967;SDS011;9221;42.646;23.380;2022-07-11T14:19:33;1.63;;;0.60;;
3967;SDS011;9221;42.646;23.380;2022-07-11T14:22:02;1.60;;;0.60;;
3967;SDS011;9221;42.646;23.380;2022-07-11T14:24:30;1.67;;;0.60;;
3967;SDS011;9221;42.646;23.380;2022-07-11T14:26:56;1.50;;;0.60;;
3967;SDS011;9221;42.646;23.380;2022-07-11T14:29:23;1.23;;;0.60;;
3967;SDS011;9221;42.646;23.380;2022-07-11T14:31:50;6.00;;;0.70;;
3967;SDS011;9221;42.646;23.380;2022-07-11T14:34:16;3.50;;;0.67;;
3967;SDS011;9221;42.646;23.380;2022-07-11T14:36:42;1.20;;;0.70;;
3967;SDS011;9221;42.646;23.380;2022-07-11T14:39:08;1.20;;;0.50;;
3967;SDS011;9221;42.646;23.380;2022-07-11T14:41:33;1.40;;;0.73;;
3967;SDS011;9221;42.646;23.380;2022-07-11T14:44:00;1.73;;;0.80;;
3967;SDS011;9221;42.646;23.380;2022-07-11T14:46:26;4.13;;;0.90;;
3967;SDS011;9221;42.646;23.380;2022-07-11T14:48:51;1.87;;;1.03;;
3967;SDS011;9221;42.646;23.380;2022-07-11T14:51:17;2.83;;;0.90;;
3967;SDS011;9221;42.646;23.380;2022-07-11T14:53:43;4.50;;;0.80;;
3967;SDS011;9221;42.646;23.380;2022-07-11T14:56:08;1.33;;;0.60;;
3967;SDS011;9221;42.646;23.380;2022-07-11T14:58:34;6.67;;;0.60;;
3967;SDS011;9221;42.646;23.380;2022-07-11T15:00:59;1.90;;;0.73;;
3967;SDS011;9221;42.646;23.380;2022-07-11T15:03:25;1.10;;;0.50;;
3967;SDS011;9221;42.646;23.380;2022-07-11T15:06:02;13.60;;;0.87;;
3967;SDS011;9221;42.646;23.380;2022-07-11T15:08:29;1.87;;;0.80;;
3967;SDS011;9221;42.646;23.380;2022-07-11T15:11:13;1.70;;;0.70;;
3967;SDS011;9221;42.646;23.380;2022-07-11T15:13:57;3.30;;;0.80;;
3967;SDS011;9221;42.646;23.380;2022-07-11T15:16:23;2.10;;;0.70;;
3967;SDS011;9221;42.646;23.380;2022-07-11T15:18:51;1.70;;;0.90;;
3967;SDS011;9221;42.646;23.380;2022-07-11T15:21:17;6.50;;;1.03;;
3967;SDS011;9221;42.646;23.380;2022-07-11T15:23:42;1.57;;;0.90;;
3967;SDS011;9221;42.646;23.380;2022-07-11T15:26:07;2.70;;;0.60;;
3967;SDS011;9221;42.646;23.380;2022-07-11T15:28:33;5.03;;;0.90;;
3967;SDS011;9221;42.646;23.380;2022-07-11T15:30:59;4.00;;;1.23;;
3967;SDS011;9221;42.646;23.380;2022-07-11T15:33:24;2.97;;;0.70;;
3967;SDS011;9221;42.646;23.380;2022-07-11T15:35:50;1.60;;;0.80;;
3967;SDS011;9221;42.646;23.380;2022-07-11T15:38:17;1.87;;;0.80;;
3967;SDS011;9221;42.646;23.380;2022-07-11T15:40:47;5.20;;;0.90;;
3967;SDS011;9221;42.646;23.380;2022-07-11T15:43:13;1.60;;;0.80;;